sensor_id;sensor_type;location;lat;lon;timestamp;P1;durP1;ratioP1;P2;durP2;ratioP2
78796;SDS011;68145;52.514;13.460;2023-04-15T00:00:13;40.08;;;24.60;;
78796;SDS011;68145;52.514;13.460;2023-04-15T00:02:39;43.63;;;27.02;;
78796;SDS011;68145;52.514;13.460;2023-04-15T00:05:06;61.00;;;40.15;;
78796;SDS011;68145;52.514;13.460;2023-04-15T00:07:32;38.95;;;26.88;;
78796;SDS011;68145;52.514;13.460;2023-04-15T00:09:58;45.72;;;25.40;;
78796;SDS011;68145;52.514;13.460;2023-04-15T00:12:24;47.60;;;30.77;;
78796;SDS011;68145;52.514;13.460;2023-04-15T00:14:50;45.30;;;28.65;;
78796;SDS011;68145;52.514;13.460;2023-04-15T00:17:17;41.38;;;25.98;;
78796;SDS011;68145;52.514;13.460;2023-04-15T00:19:43;42.63;;;24.50;;
78796;SDS011;68145;52.514;13.460;2023-04-15T00:22:10;49.63;;;29.65;;
78796;SDS011;68145;52.514;13.460;2023-04-15T00:24:36;38.30;;;21.75;;
78796;SDS011;68145;52.514;13.460;2023-04-15T00:27:02;47.05;;;27.60;;
78796;SDS011;68145;52.514;13.460;2023-04-15T00:29:28;35.97;;;20.73;;
78796;SDS011;68145;52.514;13.460;2023-04-15T00:31:55;37.83;;;22.80;;
78796;SDS011;68145;52.514;13.460;2023-04-15T00:34:21;39.30;;;21.10;;
78796;SDS011;68145;52.514;13.460;2023-04-15T00:36:47;41.17;;;23.55;;
78796;SDS011;68145;52.514;13.460;2023-04-15T00:39:13;54.00;;;32.85;;
78796;SDS011;68145;52.514;13.460;2023-04-15T00:41:40;41.63;;;24.92;;
78796;SDS011;68145;52.514;13.460;2023-04-15T00:44:06;50.05;;;28.60;;
78796;SDS011;68145;52.514;13.460;2023-04-15T00:46:36;57.15;;;34.67;;
78796;SDS011;68145;52.514;13.460;2023-04-15T00:49:04;41.42;;;24.65;;
78796;SDS011;68145;52.514;13.460;2023-04-15T00:51:31;47.53;;;26.67;;
78796;SDS011;68145;52.514;13.460;2023-04-15T00:54:01;41.53;;;22.83;;
78796;SDS011;68145;52.514;13.460;2023-04-15T00:56:27;40.88;;;21.73;;
78796;SDS011;68145;52.514;13.460;2023-04-15T00:58:54;41.67;;;23.13;;
78796;SDS011;68145;52.514;13.460;2023-04-15T01:01:20;45.95;;;25.27;;
78796;SDS011;68145;52.514;13.460;2023-04-15T01:03:48;41.88;;;22.42;;
78796;SDS011;68145;52.514;13.460;2023-04-15T01:06:14;43.58;;;22.33;;
78796;SDS011;68145;52.514;13.460;2023-04-15T01:08:41;44.70;;;23.50;;
78796;SDS011;68145;52.514;13.460;2023-04-15T01:11:07;44.72;;;24.52;;
78796;SDS011;68145;52.514;13.460;2023-04-15T01:13:33;45.45;;;24.17;;
78796;SDS011;68145;52.514;13.460;2023-04-15T01:16:01;41.17;;;22.27;;
78796;SDS011;68145;52.514;13.460;2023-04-15T01:18:27;43.40;;;23.33;;
78796;SDS011;68145;52.514;13.460;2023-04-15T01:20:54;42.22;;;22.83;;
78796;SDS011;68145;52.514;13.460;2023-04-15T01:23:20;43.50;;;23.60;;
78796;SDS011;68145;52.514;13.460;2023-04-15T01:25:50;42.85;;;23.60;;
78796;SDS011;68145;52.514;13.460;2023-04-15T01:28:17;46.13;;;23.38;;
78796;SDS011;68145;52.514;13.460;2023-04-15T01:30:44;45.78;;;23.05;;
78796;SDS011;68145;52.514;13.460;2023-04-15T01:33:10;43.92;;;23.23;;
78796;SDS011;68145;52.514;13.460;2023-04-15T01:35:36;47.42;;;23.30;;
78796;SDS011;68145;52.514;13.460;2023-04-15T01:38:04;43.45;;;23.50;;
78796;SDS011;68145;52.514;13.460;2023-04-15T01:40:31;52.95;;;23.85;;
78796;SDS011;68145;52.514;13.460;2023-04-15T01:42:57;45.67;;;24.40;;
78796;SDS011;68145;52.514;13.460;2023-04-15T01:45:24;48.50;;;24.90;;
78796;SDS011;68145;52.514;13.460;2023-04-15T01:47:50;48.65;;;23.25;;
78796;SDS011;68145;52.514;13.460;2023-04-15T01:50:19;47.35;;;24.48;;
78796;SDS011;68145;52.514;13.460;2023-04-15T01:52:45;49.28;;;23.80;;
78796;SDS011;68145;52.514;13.460;2023-04-15T01:55:12;49.38;;;23.00;;
78796;SDS011;68145;52.514;13.460;2023-04-15T01:57:38;45.53;;;23.38;;
78796;SDS011;68145;52.514;13.460;2023-04-15T02:00:05;46.22;;;23.42;;
78796;SDS011;68145;52.514;13.460;2023-04-15T02:02:35;44.75;;;23.80;;
78796;SDS011;68145;52.514;13.460;2023-04-15T02:05:01;46.28;;;23.15;;
78796;SDS011;68145;52.514;13.460;2023-04-15T02:07:29;49.30;;;25.00;;
78796;SDS011;68145;52.514;13.460;2023-04-15T02:09:56;46.58;;;22.58;;
78796;SDS011;68145;52.514;13.460;2023-04-15T02:12:22;42.67;;;22.25;;
78796;SDS011;68145;52.514;13.460;2023-04-15T02:14:48;45.70;;;23.52;;
78796;SDS011;68145;52.514;13.460;2023-04-15T02:17:14;50.15;;;24.15;;
78796;SDS011;68145;52.514;13.460;2023-04-15T02:19:41;49.70;;;24.33;;
78796;SDS011;68145;52.514;13.460;2023-04-15T02:22:07;55.17;;;26.00;;
78796;SDS011;68145;52.514;13.460;2023-04-15T02:24:33;49.78;;;25.30;;
78796;SDS011;68145;52.514;13.460;2023-04-15T02:26:59;48.58;;;24.13;;
78796;SDS011;68145;52.514;13.460;2023-04-15T02:29:26;58.33;;;28.35;;
78796;SDS011;68145;52.514;13.460;2023-04-15T02:31:52;55.45;;;26.90;;
78796;SDS011;68145;52.514;13.460;2023-04-15T02:34:18;52.45;;;24.35;;
78796;SDS011;68145;52.514;13.460;2023-04-15T02:36:44;57.67;;;25.40;;
78796;SDS011;68145;52.514;13.460;2023-04-15T02:39:12;53.55;;;24.77;;
78796;SDS011;68145;52.514;13.460;2023-04-15T02:41:41;51.58;;;26.30;;
78796;SDS011;68145;52.514;13.460;2023-04-15T02:44:07;49.70;;;24.83;;
78796;SDS011;68145;52.514;13.460;2023-04-15T02:46:34;47.53;;;24.42;;
78796;SDS011;68145;52.514;13.460;2023-04-15T02:49:00;48.33;;;23.20;;
78796;SDS011;68145;52.514;13.460;2023-04-15T02:51:29;47.47;;;23.33;;
78796;SDS011;68145;52.514;13.460;2023-04-15T02:53:57;43.75;;;22.77;;
78796;SDS011;68145;52.514;13.460;2023-04-15T02:56:24;47.92;;;24.20;;
78796;SDS011;68145;52.514;13.460;2023-04-15T02:58:50;46.80;;;25.05;;
78796;SDS011;68145;52.514;13.460;2023-04-15T03:01:16;50.28;;;24.17;;
78796;SDS011;68145;52.514;13.460;2023-04-15T03:03:42;53.33;;;23.38;;
78796;SDS011;68145;52.514;13.460;2023-04-15T03:06:08;42.63;;;23.08;;
78796;SDS011;68145;52.514;13.460;2023-04-15T03:08:34;43.13;;;22.17;;
78796;SDS011;68145;52.514;13.460;2023-04-15T03:11:01;45.05;;;21.73;;
78796;SDS011;68145;52.514;13.460;2023-04-15T03:13:27;44.33;;;22.15;;
78796;SDS011;68145;52.514;13.460;2023-04-15T03:15:53;42.22;;;21.73;;
78796;SDS011;68145;52.514;13.460;2023-04-15T03:18:19;45.42;;;21.80;;
78796;SDS011;68145;52.514;13.460;2023-04-15T03:20:45;42.58;;;21.55;;
78796;SDS011;68145;52.514;13.460;2023-04-15T03:23:11;44.58;;;22.25;;
78796;SDS011;68145;52.514;13.460;2023-04-15T03:25:37;39.17;;;20.58;;
78796;SDS011;68145;52.514;13.460;2023-04-15T03:28:03;36.75;;;20.45;;
78796;SDS011;68145;52.514;13.460;2023-04-15T03:30:29;40.63;;;22.70;;
78796;SDS011;68145;52.514;13.460;2023-04-15T03:32:55;38.65;;;21.75;;
78796;SDS011;68145;52.514;13.460;2023-04-15T03:35:21;36.88;;;20.80;;
78796;SDS011;68145;52.514;13.460;2023-04-15T03:37:47;43.47;;;22.48;;
78796;SDS011;68145;52.514;13.460;2023-04-15T03:40:13;37.85;;;20.48;;
78796;SDS011;68145;52.514;13.460;2023-04-15T03:42:39;40.95;;;22.42;;
78796;SDS011;68145;52.514;13.460;2023-04-15T03:45:06;37.33;;;19.42;;
78796;SDS011;68145;52.514;13.460;2023-04-15T03:47:32;34.63;;;19.80;;
78796;SDS011;68145;52.514;13.460;2023-04-15T03:49:58;38.20;;;20.05;;
78796;SDS011;68145;52.514;13.460;2023-04-15T03:52:24;41.90;;;20.42;;
78796;SDS011;68145;52.514;13.460;2023-04-15T03:54:50;36.38;;;19.40;;
78796;SDS011;68145;52.514;13.460;2023-04-15T03:57:16;35.92;;;19.27;;
78796;SDS011;68145;52.514;13.460;2023-04-15T03:59:42;37.67;;;20.92;;
78796;SDS011;68145;52.514;13.460;2023-04-15T04:02:09;33.75;;;19.83;;
78796;SDS011;68145;52.514;13.460;2023-04-15T04:04:35;40.30;;;20.15;;
78796;SDS011;68145;52.514;13.460;2023-04-15T04:07:01;34.22;;;19.73;;
78796;SDS011;68145;52.514;13.460;2023-04-15T04:09:27;32.03;;;18.60;;
78796;SDS011;68145;52.514;13.460;2023-04-15T04:11:53;35.08;;;19.88;;
78796;SDS011;68145;52.514;13.460;2023-04-15T04:14:20;36.70;;;20.05;;
78796;SDS011;68145;52.514;13.460;2023-04-15T04:16:53;36.47;;;19.98;;
78796;SDS011;68145;52.514;13.460;2023-04-15T04:19:19;33.40;;;19.73;;
78796;SDS011;68145;52.514;13.460;2023-04-15T04:21:45;32.45;;;18.08;;
78796;SDS011;68145;52.514;13.460;2023-04-15T04:24:11;31.90;;;18.13;;
78796;SDS011;68145;52.514;13.460;2023-04-15T04:26:37;35.50;;;18.67;;
78796;SDS011;68145;52.514;13.460;2023-04-15T04:29:03;28.58;;;17.15;;
78796;SDS011;68145;52.514;13.460;2023-04-15T04:31:29;29.85;;;17.55;;
78796;SDS011;68145;52.514;13.460;2023-04-15T04:33:55;31.50;;;17.85;;
78796;SDS011;68145;52.514;13.460;2023-04-15T04:36:21;28.00;;;16.85;;
78796;SDS011;68145;52.514;13.460;2023-04-15T04:38:47;30.60;;;17.30;;
78796;SDS011;68145;52.514;13.460;2023-04-15T04:41:13;26.02;;;16.38;;
78796;SDS011;68145;52.514;13.460;2023-04-15T04:43:40;30.10;;;17.17;;
78796;SDS011;68145;52.514;13.460;2023-04-15T04:46:06;28.73;;;16.98;;
78796;SDS011;68145;52.514;13.460;2023-04-15T04:48:32;30.65;;;17.80;;
78796;SDS011;68145;52.514;13.460;2023-04-15T04:50:58;31.67;;;18.27;;
78796;SDS011;68145;52.514;13.460;2023-04-15T04:53:24;28.77;;;17.75;;
78796;SDS011;68145;52.514;13.460;2023-04-15T04:55:52;27.65;;;17.85;;
78796;SDS011;68145;52.514;13.460;2023-04-15T04:58:18;30.75;;;17.45;;
78796;SDS011;68145;52.514;13.460;2023-04-15T05:00:44;29.60;;;16.38;;
78796;SDS011;68145;52.514;13.460;2023-04-15T05:03:10;27.63;;;17.73;;
78796;SDS011;68145;52.514;13.460;2023-04-15T05:05:36;25.13;;;15.77;;
78796;SDS011;68145;52.514;13.460;2023-04-15T05:08:05;25.25;;;15.73;;
78796;SDS011;68145;52.514;13.460;2023-04-15T05:10:31;24.98;;;15.73;;
78796;SDS011;68145;52.514;13.460;2023-04-15T05:12:57;24.67;;;15.88;;
78796;SDS011;68145;52.514;13.460;2023-04-15T05:15:24;24.65;;;15.57;;
78796;SDS011;68145;52.514;13.460;2023-04-15T05:17:50;23.00;;;15.45;;
78796;SDS011;68145;52.514;13.460;2023-04-15T05:20:16;25.98;;;15.55;;
78796;SDS011;68145;52.514;13.460;2023-04-15T05:22:42;24.23;;;15.55;;
78796;SDS011;68145;52.514;13.460;2023-04-15T05:25:08;21.92;;;14.90;;
78796;SDS011;68145;52.514;13.460;2023-04-15T05:27:34;21.38;;;14.48;;
78796;SDS011;68145;52.514;13.460;2023-04-15T05:30:00;23.88;;;14.85;;
78796;SDS011;68145;52.514;13.460;2023-04-15T05:32:26;22.70;;;15.02;;
78796;SDS011;68145;52.514;13.460;2023-04-15T05:34:52;24.67;;;13.77;;
78796;SDS011;68145;52.514;13.460;2023-04-15T05:37:18;21.10;;;14.77;;
78796;SDS011;68145;52.514;13.460;2023-04-15T05:39:45;24.17;;;14.82;;
78796;SDS011;68145;52.514;13.460;2023-04-15T05:42:12;22.45;;;14.15;;
78796;SDS011;68145;52.514;13.460;2023-04-15T05:44:38;21.50;;;14.35;;
78796;SDS011;68145;52.514;13.460;2023-04-15T05:47:04;20.08;;;13.82;;
78796;SDS011;68145;52.514;13.460;2023-04-15T05:49:31;20.70;;;13.23;;
78796;SDS011;68145;52.514;13.460;2023-04-15T05:51:57;20.60;;;13.43;;
78796;SDS011;68145;52.514;13.460;2023-04-15T05:54:23;20.08;;;14.02;;
78796;SDS011;68145;52.514;13.460;2023-04-15T05:56:50;21.70;;;13.93;;
78796;SDS011;68145;52.514;13.460;2023-04-15T05:59:16;21.42;;;13.52;;
78796;SDS011;68145;52.514;13.460;2023-04-15T06:01:42;21.67;;;13.73;;
78796;SDS011;68145;52.514;13.460;2023-04-15T06:04:09;20.02;;;13.10;;
78796;SDS011;68145;52.514;13.460;2023-04-15T06:06:35;17.05;;;11.85;;
78796;SDS011;68145;52.514;13.460;2023-04-15T06:09:02;20.02;;;12.57;;
78796;SDS011;68145;52.514;13.460;2023-04-15T06:11:28;18.48;;;13.10;;
78796;SDS011;68145;52.514;13.460;2023-04-15T06:13:54;20.25;;;12.05;;
78796;SDS011;68145;52.514;13.460;2023-04-15T06:16:21;19.83;;;12.95;;
78796;SDS011;68145;52.514;13.460;2023-04-15T06:18:47;18.00;;;11.52;;
78796;SDS011;68145;52.514;13.460;2023-04-15T06:21:13;19.88;;;13.13;;
78796;SDS011;68145;52.514;13.460;2023-04-15T06:23:40;16.13;;;11.80;;
78796;SDS011;68145;52.514;13.460;2023-04-15T06:26:06;17.15;;;12.07;;
78796;SDS011;68145;52.514;13.460;2023-04-15T06:28:32;17.77;;;12.55;;
78796;SDS011;68145;52.514;13.460;2023-04-15T06:30:58;21.08;;;13.20;;
78796;SDS011;68145;52.514;13.460;2023-04-15T06:33:26;19.55;;;11.98;;
78796;SDS011;68145;52.514;13.460;2023-04-15T06:35:52;16.63;;;12.07;;
78796;SDS011;68145;52.514;13.460;2023-04-15T06:38:18;17.25;;;12.02;;
78796;SDS011;68145;52.514;13.460;2023-04-15T06:40:44;15.45;;;11.02;;
78796;SDS011;68145;52.514;13.460;2023-04-15T06:43:10;17.25;;;12.20;;
78796;SDS011;68145;52.514;13.460;2023-04-15T06:45:36;18.40;;;11.20;;
78796;SDS011;68145;52.514;13.460;2023-04-15T06:48:03;17.95;;;12.40;;
78796;SDS011;68145;52.514;13.460;2023-04-15T06:50:29;16.48;;;11.32;;
78796;SDS011;68145;52.514;13.460;2023-04-15T06:52:56;16.73;;;10.68;;
78796;SDS011;68145;52.514;13.460;2023-04-15T06:55:22;16.83;;;10.68;;
78796;SDS011;68145;52.514;13.460;2023-04-15T06:57:48;15.93;;;10.88;;
78796;SDS011;68145;52.514;13.460;2023-04-15T07:00:14;14.60;;;10.82;;
78796;SDS011;68145;52.514;13.460;2023-04-15T07:02:41;16.20;;;11.07;;
78796;SDS011;68145;52.514;13.460;2023-04-15T07:05:07;17.02;;;10.82;;
78796;SDS011;68145;52.514;13.460;2023-04-15T07:07:34;20.42;;;11.85;;
78796;SDS011;68145;52.514;13.460;2023-04-15T07:10:00;18.42;;;10.85;;
78796;SDS011;68145;52.514;13.460;2023-04-15T07:12:27;19.65;;;12.77;;
78796;SDS011;68145;52.514;13.460;2023-04-15T07:14:53;15.30;;;10.32;;
78796;SDS011;68145;52.514;13.460;2023-04-15T07:17:20;17.63;;;11.95;;
78796;SDS011;68145;52.514;13.460;2023-04-15T07:19:46;14.40;;;10.50;;
78796;SDS011;68145;52.514;13.460;2023-04-15T07:22:12;19.58;;;12.52;;
78796;SDS011;68145;52.514;13.460;2023-04-15T07:24:38;24.95;;;15.60;;
78796;SDS011;68145;52.514;13.460;2023-04-15T07:27:04;24.85;;;15.60;;
78796;SDS011;68145;52.514;13.460;2023-04-15T07:29:30;23.27;;;13.73;;
78796;SDS011;68145;52.514;13.460;2023-04-15T07:31:56;21.85;;;13.82;;
78796;SDS011;68145;52.514;13.460;2023-04-15T07:34:22;30.90;;;16.42;;
78796;SDS011;68145;52.514;13.460;2023-04-15T07:36:49;29.77;;;15.32;;
78796;SDS011;68145;52.514;13.460;2023-04-15T07:39:16;21.60;;;12.85;;
78796;SDS011;68145;52.514;13.460;2023-04-15T07:41:43;18.50;;;13.18;;
78796;SDS011;68145;52.514;13.460;2023-04-15T07:44:09;22.23;;;14.88;;
78796;SDS011;68145;52.514;13.460;2023-04-15T07:46:35;17.40;;;11.50;;
78796;SDS011;68145;52.514;13.460;2023-04-15T07:49:02;21.27;;;13.10;;
78796;SDS011;68145;52.514;13.460;2023-04-15T07:51:28;21.77;;;13.35;;
78796;SDS011;68145;52.514;13.460;2023-04-15T07:53:54;23.17;;;14.27;;
78796;SDS011;68145;52.514;13.460;2023-04-15T07:56:20;26.17;;;16.27;;
78796;SDS011;68145;52.514;13.460;2023-04-15T07:58:46;16.27;;;12.27;;
78796;SDS011;68145;52.514;13.460;2023-04-15T08:01:12;21.38;;;13.30;;
78796;SDS011;68145;52.514;13.460;2023-04-15T08:03:39;18.95;;;13.35;;
78796;SDS011;68145;52.514;13.460;2023-04-15T08:06:05;18.42;;;12.35;;
78796;SDS011;68145;52.514;13.460;2023-04-15T08:08:31;12.70;;;10.60;;
78796;SDS011;68145;52.514;13.460;2023-04-15T08:10:57;16.90;;;12.15;;
78796;SDS011;68145;52.514;13.460;2023-04-15T08:13:24;15.75;;;11.15;;
78796;SDS011;68145;52.514;13.460;2023-04-15T08:15:52;15.85;;;11.15;;
78796;SDS011;68145;52.514;13.460;2023-04-15T08:18:18;18.50;;;12.15;;
78796;SDS011;68145;52.514;13.460;2023-04-15T08:20:44;16.40;;;11.35;;
78796;SDS011;68145;52.514;13.460;2023-04-15T08:23:10;19.08;;;14.40;;
78796;SDS011;68145;52.514;13.460;2023-04-15T08:25:36;21.20;;;14.50;;
78796;SDS011;68145;52.514;13.460;2023-04-15T08:28:03;19.88;;;13.15;;
78796;SDS011;68145;52.514;13.460;2023-04-15T08:30:31;18.70;;;12.40;;
78796;SDS011;68145;52.514;13.460;2023-04-15T08:32:58;18.42;;;13.40;;
78796;SDS011;68145;52.514;13.460;2023-04-15T08:35:25;16.65;;;12.77;;
78796;SDS011;68145;52.514;13.460;2023-04-15T08:37:51;18.63;;;14.30;;
78796;SDS011;68145;52.514;13.460;2023-04-15T08:40:17;15.25;;;11.43;;
78796;SDS011;68145;52.514;13.460;2023-04-15T08:42:43;19.60;;;11.95;;
78796;SDS011;68145;52.514;13.460;2023-04-15T08:45:12;17.33;;;12.23;;
78796;SDS011;68145;52.514;13.460;2023-04-15T08:47:39;15.93;;;11.52;;
78796;SDS011;68145;52.514;13.460;2023-04-15T08:50:07;21.30;;;14.68;;
78796;SDS011;68145;52.514;13.460;2023-04-15T08:52:33;18.25;;;13.65;;
78796;SDS011;68145;52.514;13.460;2023-04-15T08:55:01;16.48;;;12.07;;
78796;SDS011;68145;52.514;13.460;2023-04-15T08:57:27;16.58;;;12.35;;
78796;SDS011;68145;52.514;13.460;2023-04-15T08:59:57;20.73;;;14.93;;
78796;SDS011;68145;52.514;13.460;2023-04-15T09:02:26;16.58;;;13.30;;
78796;SDS011;68145;52.514;13.460;2023-04-15T09:04:52;15.80;;;11.68;;
78796;SDS011;68145;52.514;13.460;2023-04-15T09:07:18;17.50;;;13.32;;
78796;SDS011;68145;52.514;13.460;2023-04-15T09:09:45;19.70;;;15.30;;
78796;SDS011;68145;52.514;13.460;2023-04-15T09:12:11;19.65;;;14.10;;
78796;SDS011;68145;52.514;13.460;2023-04-15T09:14:38;19.45;;;13.13;;
78796;SDS011;68145;52.514;13.460;2023-04-15T09:17:05;17.67;;;12.63;;
78796;SDS011;68145;52.514;13.460;2023-04-15T09:19:35;18.13;;;13.57;;
78796;SDS011;68145;52.514;13.460;2023-04-15T09:22:01;16.70;;;12.52;;
78796;SDS011;68145;52.514;13.460;2023-04-15T09:24:37;15.77;;;12.77;;
78796;SDS011;68145;52.514;13.460;2023-04-15T09:27:04;18.58;;;12.63;;
78796;SDS011;68145;52.514;13.460;2023-04-15T09:29:30;17.20;;;12.77;;
78796;SDS011;68145;52.514;13.460;2023-04-15T09:31:57;18.38;;;12.45;;
78796;SDS011;68145;52.514;13.460;2023-04-15T09:34:34;14.95;;;11.48;;
78796;SDS011;68145;52.514;13.460;2023-04-15T09:37:01;16.38;;;11.85;;
78796;SDS011;68145;52.514;13.460;2023-04-15T09:39:34;17.27;;;12.05;;
78796;SDS011;68145;52.514;13.460;2023-04-15T09:42:09;18.10;;;13.07;;
78796;SDS011;68145;52.514;13.460;2023-04-15T09:44:35;19.13;;;12.73;;
78796;SDS011;68145;52.514;13.460;2023-04-15T09:47:02;17.48;;;14.02;;
78796;SDS011;68145;52.514;13.460;2023-04-15T09:49:28;15.98;;;12.23;;
78796;SDS011;68145;52.514;13.460;2023-04-15T09:51:58;17.55;;;12.18;;
78796;SDS011;68145;52.514;13.460;2023-04-15T09:54:27;16.63;;;12.48;;
78796;SDS011;68145;52.514;13.460;2023-04-15T09:57:03;14.88;;;11.18;;
78796;SDS011;68145;52.514;13.460;2023-04-15T09:59:29;16.95;;;12.52;;
78796;SDS011;68145;52.514;13.460;2023-04-15T10:01:55;18.63;;;12.77;;
78796;SDS011;68145;52.514;13.460;2023-04-15T10:04:22;13.65;;;10.70;;
78796;SDS011;68145;52.514;13.460;2023-04-15T10:06:48;13.63;;;11.85;;
78796;SDS011;68145;52.514;13.460;2023-04-15T10:09:14;18.98;;;11.60;;
78796;SDS011;68145;52.514;13.460;2023-04-15T10:11:41;16.75;;;11.40;;
78796;SDS011;68145;52.514;13.460;2023-04-15T10:14:08;15.60;;;12.35;;
78796;SDS011;68145;52.514;13.460;2023-04-15T10:16:36;15.23;;;12.00;;
78796;SDS011;68145;52.514;13.460;2023-04-15T10:19:04;19.98;;;12.75;;
78796;SDS011;68145;52.514;13.460;2023-04-15T10:21:31;18.25;;;14.05;;
78796;SDS011;68145;52.514;13.460;2023-04-15T10:23:57;14.77;;;11.32;;
78796;SDS011;68145;52.514;13.460;2023-04-15T10:26:25;18.30;;;12.05;;
78796;SDS011;68145;52.514;13.460;2023-04-15T10:28:52;17.15;;;13.02;;
78796;SDS011;68145;52.514;13.460;2023-04-15T10:31:18;16.33;;;11.35;;
78796;SDS011;68145;52.514;13.460;2023-04-15T10:33:44;14.02;;;11.32;;
78796;SDS011;68145;52.514;13.460;2023-04-15T10:36:11;14.88;;;11.23;;
78796;SDS011;68145;52.514;13.460;2023-04-15T10:38:38;15.18;;;11.55;;
78796;SDS011;68145;52.514;13.460;2023-04-15T10:41:11;14.10;;;11.23;;
78796;SDS011;68145;52.514;13.460;2023-04-15T10:43:38;14.30;;;11.18;;
78796;SDS011;68145;52.514;13.460;2023-04-15T10:46:05;17.15;;;12.73;;
78796;SDS011;68145;52.514;13.460;2023-04-15T10:48:31;17.30;;;12.95;;
78796;SDS011;68145;52.514;13.460;2023-04-15T10:50:59;17.42;;;12.38;;
78796;SDS011;68145;52.514;13.460;2023-04-15T10:53:29;16.30;;;11.77;;
78796;SDS011;68145;52.514;13.460;2023-04-15T10:55:56;15.05;;;11.93;;
78796;SDS011;68145;52.514;13.460;2023-04-15T10:58:23;15.07;;;11.90;;
78796;SDS011;68145;52.514;13.460;2023-04-15T11:00:50;14.55;;;11.70;;
78796;SDS011;68145;52.514;13.460;2023-04-15T11:03:17;14.27;;;11.60;;
78796;SDS011;68145;52.514;13.460;2023-04-15T11:05:58;15.13;;;11.18;;
78796;SDS011;68145;52.514;13.460;2023-04-15T11:11:10;15.57;;;11.32;;
78796;SDS011;68145;52.514;13.460;2023-04-15T11:13:45;17.08;;;13.27;;
78796;SDS011;68145;52.514;13.460;2023-04-15T11:16:12;17.52;;;13.40;;
78796;SDS011;68145;52.514;13.460;2023-04-15T11:18:38;16.55;;;12.77;;
78796;SDS011;68145;52.514;13.460;2023-04-15T11:21:06;14.73;;;11.30;;
78796;SDS011;68145;52.514;13.460;2023-04-15T11:23:34;17.05;;;11.27;;
78796;SDS011;68145;52.514;13.460;2023-04-15T11:26:01;15.88;;;11.80;;
78796;SDS011;68145;52.514;13.460;2023-04-15T11:28:30;17.65;;;12.25;;
78796;SDS011;68145;52.514;13.460;2023-04-15T11:30:56;14.80;;;11.15;;
78796;SDS011;68145;52.514;13.460;2023-04-15T11:33:22;14.30;;;11.50;;
78796;SDS011;68145;52.514;13.460;2023-04-15T11:35:49;15.60;;;12.02;;
78796;SDS011;68145;52.514;13.460;2023-04-15T11:38:15;14.30;;;10.95;;
78796;SDS011;68145;52.514;13.460;2023-04-15T11:40:42;14.90;;;11.07;;
78796;SDS011;68145;52.514;13.460;2023-04-15T11:43:09;16.50;;;12.85;;
78796;SDS011;68145;52.514;13.460;2023-04-15T11:45:36;22.05;;;15.02;;
78796;SDS011;68145;52.514;13.460;2023-04-15T11:48:06;15.63;;;12.45;;
78796;SDS011;68145;52.514;13.460;2023-04-15T11:50:33;14.45;;;11.18;;
78796;SDS011;68145;52.514;13.460;2023-04-15T11:53:00;20.02;;;14.48;;
78796;SDS011;68145;52.514;13.460;2023-04-15T11:55:27;21.13;;;15.75;;
78796;SDS011;68145;52.514;13.460;2023-04-15T12:00:39;18.25;;;13.05;;
78796;SDS011;68145;52.514;13.460;2023-04-15T12:11:15;22.38;;;16.05;;
78796;SDS011;68145;52.514;13.460;2023-04-15T12:13:52;28.05;;;16.85;;
78796;SDS011;68145;52.514;13.460;2023-04-15T12:16:18;28.25;;;20.20;;
78796;SDS011;68145;52.514;13.460;2023-04-15T12:18:54;28.83;;;17.33;;
78796;SDS011;68145;52.514;13.460;2023-04-15T12:21:21;26.33;;;17.80;;
78796;SDS011;68145;52.514;13.460;2023-04-15T12:23:48;15.55;;;11.93;;
78796;SDS011;68145;52.514;13.460;2023-04-15T12:26:15;17.33;;;12.35;;
78796;SDS011;68145;52.514;13.460;2023-04-15T12:28:42;25.15;;;17.70;;
78796;SDS011;68145;52.514;13.460;2023-04-15T12:31:09;19.35;;;13.50;;
78796;SDS011;68145;52.514;13.460;2023-04-15T12:33:35;13.32;;;10.15;;
78796;SDS011;68145;52.514;13.460;2023-04-15T12:36:02;23.75;;;16.67;;
78796;SDS011;68145;52.514;13.460;2023-04-15T12:38:28;13.32;;;10.02;;
78796;SDS011;68145;52.514;13.460;2023-04-15T12:40:55;32.50;;;21.67;;
78796;SDS011;68145;52.514;13.460;2023-04-15T12:43:21;17.33;;;11.88;;
78796;SDS011;68145;52.514;13.460;2023-04-15T12:45:47;14.70;;;9.80;;
78796;SDS011;68145;52.514;13.460;2023-04-15T12:48:14;19.40;;;12.93;;
78796;SDS011;68145;52.514;13.460;2023-04-15T12:50:40;28.73;;;19.90;;
78796;SDS011;68145;52.514;13.460;2023-04-15T12:53:06;22.45;;;15.00;;
78796;SDS011;68145;52.514;13.460;2023-04-15T12:55:33;27.27;;;18.40;;
78796;SDS011;68145;52.514;13.460;2023-04-15T12:57:59;23.63;;;16.70;;
78796;SDS011;68145;52.514;13.460;2023-04-15T13:00:25;12.98;;;10.05;;
78796;SDS011;68145;52.514;13.460;2023-04-15T13:02:51;18.73;;;13.90;;
78796;SDS011;68145;52.514;13.460;2023-04-15T13:05:18;14.52;;;11.88;;
78796;SDS011;68145;52.514;13.460;2023-04-15T13:07:45;17.15;;;12.65;;
78796;SDS011;68145;52.514;13.460;2023-04-15T13:10:11;19.25;;;14.68;;
78796;SDS011;68145;52.514;13.460;2023-04-15T13:12:37;42.67;;;27.20;;
78796;SDS011;68145;52.514;13.460;2023-04-15T13:15:03;40.05;;;25.40;;
78796;SDS011;68145;52.514;13.460;2023-04-15T13:17:29;14.27;;;10.82;;
78796;SDS011;68145;52.514;13.460;2023-04-15T13:19:55;41.10;;;27.55;;
78796;SDS011;68145;52.514;13.460;2023-04-15T13:22:22;15.98;;;11.25;;
78796;SDS011;68145;52.514;13.460;2023-04-15T13:24:48;16.38;;;12.05;;
78796;SDS011;68145;52.514;13.460;2023-04-15T13:27:15;29.27;;;18.40;;
78796;SDS011;68145;52.514;13.460;2023-04-15T13:29:41;27.15;;;17.95;;
78796;SDS011;68145;52.514;13.460;2023-04-15T13:32:08;18.92;;;13.02;;
78796;SDS011;68145;52.514;13.460;2023-04-15T13:34:35;18.65;;;13.43;;
78796;SDS011;68145;52.514;13.460;2023-04-15T13:37:07;29.58;;;19.35;;
78796;SDS011;68145;52.514;13.460;2023-04-15T13:39:33;14.82;;;10.57;;
78796;SDS011;68145;52.514;13.460;2023-04-15T13:41:59;26.17;;;15.38;;
78796;SDS011;68145;52.514;13.460;2023-04-15T13:44:26;17.88;;;12.57;;
78796;SDS011;68145;52.514;13.460;2023-04-15T13:46:52;20.75;;;15.00;;
78796;SDS011;68145;52.514;13.460;2023-04-15T13:49:18;17.80;;;12.13;;
78796;SDS011;68145;52.514;13.460;2023-04-15T13:51:45;29.50;;;20.60;;
78796;SDS011;68145;52.514;13.460;2023-04-15T13:54:11;18.40;;;13.48;;
78796;SDS011;68145;52.514;13.460;2023-04-15T13:56:37;11.38;;;9.02;;
78796;SDS011;68145;52.514;13.460;2023-04-15T13:59:03;10.40;;;7.28;;
78796;SDS011;68145;52.514;13.460;2023-04-15T14:01:30;14.38;;;10.40;;
78796;SDS011;68145;52.514;13.460;2023-04-15T14:03:56;15.45;;;11.77;;
78796;SDS011;68145;52.514;13.460;2023-04-15T14:06:22;18.23;;;11.93;;
78796;SDS011;68145;52.514;13.460;2023-04-15T14:08:50;12.50;;;9.20;;
78796;SDS011;68145;52.514;13.460;2023-04-15T14:11:16;16.33;;;11.80;;
78796;SDS011;68145;52.514;13.460;2023-04-15T14:13:42;11.80;;;8.32;;
78796;SDS011;68145;52.514;13.460;2023-04-15T14:16:08;11.65;;;9.15;;
78796;SDS011;68145;52.514;13.460;2023-04-15T14:18:34;10.82;;;8.93;;